Saskatoon, Saskatchewan

7:09 PM CST on October 24, 2014 (GMT -0600)
Saskatoon-Diefenbaker International | Change Station
CLOSE
Current Station
Airport
Location: Saskatoon,
Elevation: 1654 ft
Nearby Weather Stations

Elev 1654 ft 52.17 °N, 106.69 °W | Updated 9 minutes ago

Clear
Clear
43 °F
Feels Like 38 °F
N
9
Wind Variable Wind from West

Tomorrow is forecast to be nearly the same temperature as today.

Today
High -- | Low -- °F
--% Chance of Precip.
Yesterday
High -- | Low -- °F
Precip. -- in
7:47 AM 5:53 PM
New Moon, 1% visible
Pressure 29.96 in
Visibility 15.0 miles
Clouds Clear
Windchill 38 °F
Dew Point 25 °F
Humidity 49%
Rainfall 0.00 in
Snow Depth Not available.
UV 0 out of 12
Pollen Not available.
Air Quality Not available.
Flu Activity Not available.
METAR CYXE 250100Z 27008KT 15SM SKC 06/M04 A2990 RMK SLP145

More Conditions Fewer Conditions

Pressure 29.96 in
Visibility 15.0 miles
Clouds Clear
Windchill 38 °F
Dew Point 25 °F
Humidity 49%
Rainfall 0.00 in
Snow Depth Not available.
UV 0 out of 12
Pollen Not available.
Air Quality Not available.
Flu Activity Not available.
METAR CYXE 250100Z 27008KT 15SM SKC 06/M04 A2990 RMK SLP145

More Conditions Fewer Conditions

10-Day Weather Forecast

Almanac

Astronomy

Oct. 24, 2014 Rise Set
Actual Time 7:47 AM CST 5:53 PM CST
Civil Twilight 7:12 AM CST 6:27 PM CST
Nautical Twilight 6:33 AM CST 7:07 PM CST
Astronomical Twilight 5:54 AM CST 7:46 PM CST
Moon 8:34 AM CST (10/24) 6:28 PM CST (10/24)
Length of Visible Light 11h 15m
Length of Day
10h 05m
Tomorrow will be 3m 48s shorter.
New Moon, 1% of the Moon is Illuminated
Today
New Moon
Oct 30
First Quarter
Nov 6
Full
Nov 14
Last Quarter
Nov 22
New

Today's Extremes

Country Highs Country Lows

Community

WunderPhotos

Upload Photos

1,764,737 photos uploaded!

WunderBlogs® & News

Nearby

Snow Depth

Not available.

Earthquake Activity

City Distance Mag. Time & Date
No recent earthquake activity has been reported nearby.
Minimum magnitude displayed is 2.5.

Coastal Water Temperatures

Place Temperature
No Stations Reporting

Nearby Weather Stations